createdAt,value
2024-02-05T00:00:53.129Z,83.65
2024-02-05T00:03:20.194Z,83.59
2024-02-05T00:05:49.062Z,83.63
2024-02-05T00:08:15.829Z,83.67
2024-02-05T00:10:42.595Z,83.80
2024-02-05T00:13:11.593Z,84.20
2024-02-05T00:15:38.736Z,83.85
2024-02-05T00:18:05.582Z,84.05
2024-02-05T00:20:35.189Z,83.84
2024-02-05T00:23:01.907Z,83.58
2024-02-05T00:25:30.732Z,83.64
2024-02-05T00:27:59.669Z,83.74
2024-02-05T00:30:26.198Z,83.99
2024-02-05T00:32:55.055Z,83.90
2024-02-05T00:35:21.745Z,83.68
2024-02-05T00:37:53.556Z,83.96
2024-02-05T00:40:21.954Z,84.03
2024-02-05T00:42:48.560Z,83.76
2024-02-05T00:45:17.523Z,83.99
2024-02-05T00:47:44.282Z,84.06
2024-02-05T00:50:11.485Z,84.07
2024-02-05T00:52:55.756Z,84.17
2024-02-05T00:55:22.319Z,84.06
2024-02-05T00:57:51.274Z,84.06
2024-02-05T01:00:18.440Z,84.20
2024-02-05T01:02:45.004Z,84.22
2024-02-05T01:05:14.326Z,83.93
2024-02-05T01:07:41.213Z,84.04
2024-02-05T01:10:08.220Z,84.17
2024-02-05T01:12:34.808Z,84.09
2024-02-05T01:15:01.366Z,84.11
2024-02-05T01:17:30.393Z,84.18
2024-02-05T01:20:00.875Z,84.17
2024-02-05T01:22:29.192Z,84.36
2024-02-05T01:25:00.589Z,84.18
2024-02-05T01:27:27.117Z,84.37
2024-02-05T01:29:53.616Z,84.20
2024-02-05T01:32:20.144Z,84.34
2024-02-05T01:34:46.901Z,83.80
2024-02-05T01:37:13.796Z,84.18
2024-02-05T01:39:41.411Z,84.14
2024-02-05T01:42:08.062Z,84.10
2024-02-05T01:44:34.724Z,84.27
2024-02-05T01:47:04.408Z,84.11
2024-02-05T01:49:35.682Z,84.10
2024-02-05T01:52:05.229Z,83.92
2024-02-05T01:54:31.899Z,84.02
2024-02-05T01:57:03.251Z,84.09
2024-02-05T01:59:33.039Z,84.29
2024-02-05T02:02:00.213Z,84.66
2024-02-05T02:04:29.304Z,85.00
2024-02-05T02:07:00.718Z,84.79
2024-02-05T02:09:29.888Z,84.75
2024-02-05T02:11:58.980Z,84.88
2024-02-05T02:14:25.515Z,85.10
2024-02-05T02:16:53.380Z,85.32
2024-02-05T02:19:26.460Z,85.14
2024-02-05T02:22:06.531Z,85.18
2024-02-05T02:24:37.956Z,85.52
2024-02-05T02:27:04.740Z,85.40
2024-02-05T02:29:31.241Z,85.75
2024-02-05T02:32:08.282Z,85.52
2024-02-05T02:34:43.462Z,85.37
2024-02-05T02:37:15.984Z,85.56
2024-02-05T02:40:02.773Z,85.67
2024-02-05T02:42:29.965Z,85.79
2024-02-05T02:44:58.378Z,85.69
2024-02-05T02:51:05.222Z,85.71
2024-02-05T02:53:31.849Z,85.27
2024-02-05T02:55:58.565Z,85.70
2024-02-05T02:58:27.566Z,85.52
2024-02-05T03:00:54.414Z,85.64
2024-02-05T03:03:23.284Z,85.57
2024-02-05T03:05:49.965Z,85.78
2024-02-05T03:08:16.661Z,85.46
2024-02-05T03:10:45.682Z,85.63
2024-02-05T03:13:18.738Z,85.39
2024-02-05T03:15:46.086Z,85.67
2024-02-05T03:18:12.740Z,85.75
2024-02-05T03:20:43.042Z,85.74
2024-02-05T03:23:12.386Z,85.81
2024-02-05T03:25:40.599Z,85.88
2024-02-05T03:28:10.775Z,85.87
2024-02-05T03:30:38.460Z,86.21
2024-02-05T03:33:08.422Z,85.84
2024-02-05T03:35:35.390Z,86.14
2024-02-05T03:38:02.085Z,85.95
2024-02-05T03:40:31.213Z,85.84
2024-02-05T03:43:00.059Z,86.14
2024-02-05T03:45:26.727Z,86.04
2024-02-05T03:47:55.593Z,86.01
2024-02-05T03:50:22.247Z,85.90
2024-02-05T03:52:48.929Z,85.95
2024-02-05T03:55:16.653Z,86.05
2024-02-05T03:57:57.333Z,85.93
2024-02-05T04:00:26.295Z,86.19
2024-02-05T04:02:59.202Z,85.97
2024-02-05T04:05:33.078Z,85.80
2024-02-05T04:08:02.398Z,85.77
2024-02-05T04:10:29.148Z,85.76
2024-02-05T04:13:03.006Z,85.92
2024-02-05T04:15:29.712Z,85.82
2024-02-05T04:17:59.893Z,85.83
2024-02-05T04:20:26.683Z,85.72
2024-02-05T04:22:53.387Z,85.71
2024-02-05T04:25:20.096Z,85.64
2024-02-05T04:27:49.577Z,85.50
2024-02-05T04:30:17.609Z,85.61
2024-02-05T04:32:46.771Z,85.43
2024-02-05T04:35:13.436Z,85.46
2024-02-05T04:37:40.140Z,85.46
2024-02-05T04:40:10.469Z,85.45
2024-02-05T04:42:37.130Z,85.42
2024-02-05T04:45:06.561Z,85.38
2024-02-05T04:47:35.355Z,85.36
2024-02-05T04:50:02.503Z,85.30
2024-02-05T04:52:29.757Z,84.94
2024-02-05T04:54:56.362Z,85.00
2024-02-05T04:57:23.011Z,84.84
2024-02-05T04:59:52.308Z,84.97
2024-02-05T05:02:20.171Z,84.87
2024-02-05T05:04:46.786Z,85.00
2024-02-05T05:07:13.573Z,84.82
2024-02-05T05:09:41.086Z,84.85
2024-02-05T05:12:07.883Z,85.00
2024-02-05T05:14:36.650Z,84.70
2024-02-05T05:17:03.208Z,84.71
2024-02-05T05:19:32.427Z,84.63
2024-02-05T05:22:01.591Z,84.54
2024-02-05T05:24:28.393Z,85.24
2024-02-05T05:26:57.501Z,84.93
2024-02-05T05:29:24.024Z,84.74
2024-02-05T05:31:50.563Z,84.87
2024-02-05T05:34:21.996Z,85.14
2024-02-05T05:36:50.914Z,85.08
2024-02-05T05:39:17.662Z,85.16
2024-02-05T05:41:44.224Z,85.03
2024-02-05T05:44:10.751Z,84.97
2024-02-05T05:46:39.788Z,84.79
2024-02-05T05:49:08.973Z,84.77
2024-02-05T05:51:35.878Z,84.76
2024-02-05T05:54:02.515Z,84.80
2024-02-05T05:56:29.810Z,84.67
2024-02-05T05:58:58.624Z,84.72
2024-02-05T06:01:25.597Z,84.96
2024-02-05T06:03:52.470Z,84.90
2024-02-05T06:06:19.256Z,84.62
2024-02-05T06:08:45.861Z,84.65
2024-02-05T06:11:14.607Z,84.39
2024-02-05T06:13:45.194Z,84.42
2024-02-05T06:16:12.190Z,84.35
2024-02-05T06:18:39.202Z,84.54
2024-02-05T06:21:08.566Z,84.45
2024-02-05T06:23:35.148Z,84.48
2024-02-05T06:26:04.045Z,84.14
2024-02-05T06:28:30.788Z,84.35
2024-02-05T06:30:57.416Z,84.22
2024-02-05T06:33:24.035Z,84.18
2024-02-05T06:35:50.764Z,84.16
2024-02-05T06:38:17.306Z,83.97
2024-02-05T06:40:43.979Z,84.05
2024-02-05T06:43:13.580Z,84.19
2024-02-05T06:45:45.280Z,84.00
2024-02-05T06:48:14.306Z,84.29
2024-02-05T06:50:43.185Z,84.16
2024-02-05T06:53:09.705Z,84.11
2024-02-05T06:55:40.724Z,84.17
2024-02-05T06:58:09.543Z,84.03
2024-02-05T07:00:36.127Z,84.36
2024-02-05T07:03:02.794Z,84.21
2024-02-05T07:05:29.408Z,84.16
2024-02-05T07:07:56.075Z,84.33
2024-02-05T07:10:25.050Z,84.03
2024-02-05T07:12:55.014Z,84.06
2024-02-05T07:15:21.636Z,83.86
2024-02-05T07:17:53.472Z,84.03
2024-02-05T07:20:20.393Z,84.08
2024-02-05T07:22:49.336Z,84.07
2024-02-05T07:25:16.805Z,83.85
2024-02-05T07:27:43.453Z,84.06
2024-02-05T07:30:10.669Z,84.01
2024-02-05T07:32:42.201Z,84.11
2024-02-05T07:35:09.034Z,84.04
2024-02-05T07:37:37.491Z,83.90
2024-02-05T07:40:05.329Z,83.84
2024-02-05T07:42:32.351Z,84.13
2024-02-05T07:44:59.004Z,84.18
2024-02-05T07:47:26.140Z,84.03
2024-02-05T07:49:52.801Z,84.05
2024-02-05T07:52:19.745Z,84.21
2024-02-05T07:54:46.461Z,84.12
2024-02-05T07:57:12.998Z,84.36
2024-02-05T07:59:42.280Z,84.41
2024-02-05T08:02:09.752Z,84.60
2024-02-05T08:04:36.906Z,84.51
2024-02-05T08:07:05.975Z,84.38
2024-02-05T08:09:36.130Z,84.68
2024-02-05T08:12:05.613Z,84.57
2024-02-05T08:14:32.150Z,84.53
2024-02-05T08:16:58.727Z,84.03
2024-02-05T08:19:25.637Z,84.29
2024-02-05T08:21:52.556Z,84.67
2024-02-05T08:24:19.458Z,84.12
2024-02-05T08:26:48.464Z,84.38
2024-02-05T08:29:17.712Z,84.50
2024-02-05T08:31:44.351Z,84.56
2024-02-05T08:34:12.567Z,84.74
2024-02-05T08:36:39.874Z,84.55
2024-02-05T08:39:10.003Z,84.20
2024-02-05T08:41:39.360Z,84.32
2024-02-05T08:44:07.080Z,84.49
2024-02-05T08:46:34.234Z,84.35
2024-02-05T08:49:00.924Z,83.84
2024-02-05T08:51:31.598Z,84.36
2024-02-05T08:54:00.667Z,84.14
2024-02-05T08:56:27.302Z,83.95
2024-02-05T08:58:56.029Z,83.85
2024-02-05T09:01:25.359Z,83.96
2024-02-05T09:03:52.065Z,83.78
2024-02-05T09:06:18.946Z,83.55
2024-02-05T09:08:47.710Z,83.69
2024-02-05T09:11:15.455Z,83.51
2024-02-05T09:13:42.444Z,83.43
2024-02-05T09:16:09.126Z,83.53
2024-02-05T09:18:38.786Z,83.72
2024-02-05T09:21:07.794Z,83.43
2024-02-05T09:23:35.692Z,83.48
2024-02-05T09:26:04.480Z,83.45
2024-02-05T09:28:31.753Z,83.29
2024-02-05T09:31:06.287Z,83.03
2024-02-05T09:33:41.968Z,83.08
2024-02-05T09:36:10.306Z,82.92
2024-02-05T09:38:37.734Z,83.11
2024-02-05T09:41:10.344Z,82.93
2024-02-05T09:43:37.517Z,83.30
2024-02-05T09:46:11.752Z,83.16
2024-02-05T09:48:45.428Z,82.64
2024-02-05T09:51:16.864Z,82.88
2024-02-05T09:53:46.006Z,82.69
2024-02-05T09:56:15.182Z,82.44
2024-02-05T09:58:44.330Z,82.46
2024-02-05T10:01:14.717Z,82.50
2024-02-05T10:03:43.278Z,82.56
2024-02-05T10:06:14.097Z,82.19
2024-02-05T10:08:42.561Z,82.14
2024-02-05T10:11:14.026Z,82.41
2024-02-05T10:13:43.370Z,82.19
2024-02-05T10:16:13.813Z,82.28
2024-02-05T10:18:40.435Z,82.08
2024-02-05T10:21:07.040Z,81.94
2024-02-05T10:23:36.112Z,81.99
2024-02-05T10:26:04.587Z,81.77
2024-02-05T10:28:35.839Z,81.78
2024-02-05T10:31:12.293Z,81.68
2024-02-05T10:33:39.383Z,81.71
2024-02-05T10:36:06.326Z,81.85
2024-02-05T10:38:42.294Z,81.72
2024-02-05T10:41:12.517Z,81.62
2024-02-05T10:43:44.610Z,81.41
2024-02-05T10:46:11.391Z,81.58
2024-02-05T10:48:42.787Z,81.67
2024-02-05T10:51:12.144Z,81.50
2024-02-05T10:53:43.892Z,81.36
2024-02-05T10:56:13.066Z,81.16
2024-02-05T10:58:44.749Z,80.90
2024-02-05T11:01:16.181Z,81.15
2024-02-05T11:03:45.805Z,80.73
2024-02-05T11:06:17.354Z,80.50
2024-02-05T11:08:44.671Z,80.69
2024-02-05T11:11:13.934Z,80.43
2024-02-05T11:13:50.135Z,80.62
2024-02-05T11:16:20.409Z,80.32
2024-02-05T11:18:53.716Z,80.54
2024-02-05T11:21:26.784Z,80.91
2024-02-05T11:23:56.652Z,80.68
2024-02-05T11:26:23.627Z,80.66
2024-02-05T11:28:51.472Z,80.70
2024-02-05T11:31:28.433Z,80.68
2024-02-05T11:34:03.452Z,80.34
2024-02-05T11:36:30.753Z,80.81
2024-02-05T11:39:11.229Z,80.49
2024-02-05T11:41:37.993Z,80.30
2024-02-05T11:44:09.891Z,79.99
2024-02-05T11:46:37.012Z,80.37
2024-02-05T11:49:04.160Z,80.15
2024-02-05T11:51:33.913Z,79.81
2024-02-05T11:54:01.104Z,80.02
2024-02-05T11:56:28.042Z,79.78
2024-02-05T11:58:57.271Z,79.90
2024-02-05T12:01:24.253Z,79.91
2024-02-05T12:03:54.442Z,79.97
2024-02-05T12:06:26.441Z,79.90
2024-02-05T12:08:56.679Z,79.80
2024-02-05T12:11:23.508Z,79.64
2024-02-05T12:13:57.640Z,78.98
2024-02-05T12:16:27.149Z,78.84
2024-02-05T12:19:09.056Z,78.61
2024-02-05T12:21:42.652Z,78.56
2024-02-05T12:24:11.914Z,78.66
2024-02-05T12:26:38.514Z,78.75
2024-02-05T12:29:05.506Z,79.14
2024-02-05T12:31:32.322Z,79.01
2024-02-05T12:34:01.403Z,78.78
2024-02-05T12:36:31.367Z,79.23
2024-02-05T12:38:58.361Z,78.75
2024-02-05T12:41:25.503Z,78.78
2024-02-05T12:43:52.423Z,78.44
2024-02-05T12:46:19.496Z,78.52
2024-02-05T12:48:47.885Z,78.45
2024-02-05T12:51:14.581Z,78.28
2024-02-05T12:53:42.973Z,78.14
2024-02-05T12:56:14.598Z,78.20
2024-02-05T12:58:44.419Z,78.45
2024-02-05T13:01:11.580Z,78.34
2024-02-05T13:03:40.807Z,78.65
2024-02-05T13:06:10.025Z,78.45
2024-02-05T13:08:42.475Z,78.59
2024-02-05T13:11:11.787Z,78.38
2024-02-05T13:13:38.431Z,78.50
2024-02-05T13:16:05.941Z,78.17
2024-02-05T13:18:35.089Z,77.76
2024-02-05T13:21:04.274Z,77.48
2024-02-05T13:23:30.904Z,77.37
2024-02-05T13:25:57.797Z,77.34
2024-02-05T13:28:29.524Z,77.69
2024-02-05T13:30:56.523Z,77.88
2024-02-05T13:33:25.638Z,78.14
2024-02-05T13:35:52.213Z,78.12
2024-02-05T13:38:21.867Z,77.92
2024-02-05T13:40:48.568Z,78.05
2024-02-05T13:43:15.214Z,77.64
2024-02-05T13:45:43.643Z,77.62
2024-02-05T13:48:15.119Z,77.66
2024-02-05T13:50:42.085Z,77.93
2024-02-05T13:53:09.034Z,77.79
2024-02-05T13:55:35.612Z,77.64
2024-02-05T13:58:02.208Z,77.80
2024-02-05T14:00:29.197Z,77.29
2024-02-05T14:02:57.992Z,77.82
2024-02-05T14:05:24.719Z,77.66
2024-02-05T14:07:51.675Z,77.61
2024-02-05T14:10:18.701Z,77.40
2024-02-05T14:12:47.851Z,77.58
2024-02-05T14:15:15.786Z,77.03
2024-02-05T14:17:42.378Z,77.23
2024-02-05T14:20:09.463Z,76.68
2024-02-05T14:22:38.682Z,76.38
2024-02-05T14:25:05.931Z,76.94
2024-02-05T14:27:35.160Z,77.02
2024-02-05T14:30:01.883Z,76.96
2024-02-05T14:32:28.611Z,77.14
2024-02-05T14:34:55.398Z,77.01
2024-02-05T14:37:22.095Z,77.14
2024-02-05T14:39:49.027Z,77.02
2024-02-05T14:42:15.604Z,76.69
2024-02-05T14:44:42.692Z,76.52
2024-02-05T14:47:09.339Z,75.87
2024-02-05T14:49:38.572Z,76.07
2024-02-05T14:52:05.629Z,76.50
2024-02-05T14:54:34.481Z,76.42
2024-02-05T14:57:05.985Z,76.92
2024-02-05T14:59:32.542Z,77.21
2024-02-05T15:01:59.487Z,77.32
2024-02-05T15:04:29.291Z,77.61
2024-02-05T15:06:56.244Z,77.51
2024-02-05T15:09:25.513Z,77.82
2024-02-05T15:11:52.458Z,77.85
2024-02-05T15:14:21.604Z,77.82
2024-02-05T15:16:51.763Z,77.60
2024-02-05T15:19:18.607Z,77.69
2024-02-05T15:21:47.879Z,77.75
2024-02-05T15:24:15.329Z,77.89
2024-02-05T15:26:47.750Z,77.83
2024-02-05T15:29:17.906Z,77.85
2024-02-05T15:31:44.805Z,77.90
2024-02-05T15:34:15.650Z,78.08
2024-02-05T15:36:42.544Z,78.03
2024-02-05T15:39:12.612Z,78.18
2024-02-05T15:41:39.587Z,78.39
2024-02-05T15:44:11.107Z,78.66
2024-02-05T15:46:38.477Z,78.77
2024-02-05T15:49:10.408Z,78.26
2024-02-05T15:51:39.632Z,78.11
2024-02-05T15:54:06.516Z,78.22
2024-02-05T15:56:42.259Z,77.82
2024-02-05T15:59:10.266Z,77.94
2024-02-05T16:01:40.643Z,77.79
2024-02-05T16:04:11.048Z,78.01
2024-02-05T16:06:38.050Z,78.18
2024-02-05T16:09:07.515Z,78.47
2024-02-05T16:11:35.028Z,78.62
2024-02-05T16:14:01.620Z,78.72
2024-02-05T16:16:28.426Z,79.04
2024-02-05T16:19:00.359Z,79.18
2024-02-05T16:21:32.567Z,79.37
2024-02-05T16:24:02.324Z,79.65
2024-02-05T16:26:29.201Z,79.64
2024-02-05T16:28:55.879Z,79.88
2024-02-05T16:31:24.750Z,79.79
2024-02-05T16:33:52.218Z,79.89
2024-02-05T16:36:21.700Z,79.74
2024-02-05T16:38:48.604Z,79.88
2024-02-05T16:41:20.092Z,79.89
2024-02-05T16:43:47.004Z,79.86
2024-02-05T16:46:13.867Z,80.06
2024-02-05T16:48:41.159Z,79.94
2024-02-05T16:51:08.259Z,80.15
2024-02-05T16:53:37.953Z,80.44
2024-02-05T16:56:05.130Z,80.51
2024-02-05T16:58:31.889Z,81.39
2024-02-05T17:01:01.517Z,82.04
2024-02-05T17:03:28.880Z,82.16
2024-02-05T17:05:55.891Z,82.66
2024-02-05T17:08:22.521Z,82.44
2024-02-05T17:10:49.207Z,82.87
2024-02-05T17:13:18.683Z,83.49
2024-02-05T17:15:50.534Z,83.76
2024-02-05T17:18:17.431Z,83.76
2024-02-05T17:20:46.532Z,83.65
2024-02-05T17:23:13.188Z,83.92
2024-02-05T17:25:39.903Z,83.97
2024-02-05T17:28:06.691Z,84.13
2024-02-05T17:30:35.486Z,84.53
2024-02-05T17:33:02.242Z,84.83
2024-02-05T17:35:31.490Z,85.21
2024-02-05T17:37:58.052Z,85.60
2024-02-05T17:40:24.733Z,85.87
2024-02-05T17:42:54.267Z,86.15
2024-02-05T17:45:23.165Z,86.75
2024-02-05T17:47:52.003Z,87.29
2024-02-05T17:50:18.706Z,87.44
2024-02-05T17:52:47.360Z,87.91
2024-02-05T17:55:21.025Z,87.99
2024-02-05T17:57:50.465Z,88.37
2024-02-05T18:00:17.254Z,88.46
2024-02-05T18:02:44.300Z,89.05
2024-02-05T18:05:11.642Z,89.21
2024-02-05T18:07:40.967Z,89.14
2024-02-05T18:10:08.503Z,89.78
2024-02-05T18:12:35.113Z,89.89
2024-02-05T18:15:01.663Z,89.46
2024-02-05T18:17:30.732Z,89.93
2024-02-05T18:19:57.396Z,89.90
2024-02-05T18:22:26.681Z,89.76
2024-02-05T18:24:55.703Z,90.12
2024-02-05T18:27:27.635Z,90.29
2024-02-05T18:29:54.179Z,90.20
2024-02-05T18:32:20.810Z,90.17
2024-02-05T18:34:47.812Z,90.54
2024-02-05T18:37:16.247Z,90.46
2024-02-05T18:39:43.294Z,90.63
2024-02-05T18:42:10.015Z,90.74
2024-02-05T18:44:36.743Z,90.97
2024-02-05T18:47:08.649Z,90.97
2024-02-05T18:49:40.011Z,90.83
2024-02-05T18:52:10.742Z,90.85
2024-02-05T18:54:37.596Z,91.13
2024-02-05T18:57:04.286Z,90.80
2024-02-05T18:59:33.645Z,90.76
2024-02-05T19:02:05.572Z,90.47
2024-02-05T19:04:32.810Z,90.70
2024-02-05T19:06:59.823Z,90.70
2024-02-05T19:09:29.113Z,90.67
2024-02-05T19:12:01.031Z,90.61
2024-02-05T19:14:30.331Z,90.48
2024-02-05T19:16:59.151Z,90.20
2024-02-05T19:19:26.146Z,90.34
2024-02-05T19:21:52.905Z,90.20
2024-02-05T19:24:19.834Z,89.92
2024-02-05T19:26:50.392Z,89.93
2024-02-05T19:29:20.614Z,90.06
2024-02-05T19:31:47.760Z,90.06
2024-02-05T19:34:16.910Z,90.10
2024-02-05T19:36:46.278Z,89.80
2024-02-05T19:39:12.867Z,90.16
2024-02-05T19:41:41.772Z,89.98
2024-02-05T19:44:10.874Z,89.86
2024-02-05T19:46:39.851Z,90.05
2024-02-05T19:49:11.199Z,89.97
2024-02-05T19:51:40.473Z,89.41
2024-02-05T19:54:07.120Z,89.74
2024-02-05T19:56:33.670Z,89.58
2024-02-05T19:59:02.366Z,89.64
2024-02-05T20:01:31.680Z,89.50
2024-02-05T20:04:01.071Z,89.32
2024-02-05T20:06:30.734Z,89.33
2024-02-05T20:08:57.535Z,89.36
2024-02-05T20:11:26.535Z,89.57
2024-02-05T20:13:53.190Z,89.25
2024-02-05T20:16:32.707Z,89.08
2024-02-05T20:18:59.839Z,89.12
2024-02-05T20:21:29.846Z,88.99
2024-02-05T20:24:02.876Z,89.42
2024-02-05T20:26:35.252Z,89.12
2024-02-05T20:29:04.159Z,88.79
2024-02-05T20:31:34.683Z,88.93
2024-02-05T20:34:01.693Z,88.72
2024-02-05T20:36:28.665Z,88.51
2024-02-05T20:38:57.789Z,88.46
2024-02-05T20:41:26.801Z,88.41
2024-02-05T20:43:54.109Z,88.13
2024-02-05T20:46:20.793Z,88.07
2024-02-05T20:48:49.944Z,87.71
2024-02-05T20:51:21.420Z,87.83
2024-02-05T20:53:50.641Z,88.08
2024-02-05T20:56:21.013Z,87.80
2024-02-05T20:58:49.849Z,87.82
2024-02-05T21:01:16.680Z,87.63
2024-02-05T21:03:45.950Z,87.91
2024-02-05T21:06:12.550Z,87.67
2024-02-05T21:08:43.922Z,87.79
2024-02-05T21:11:12.995Z,87.90
2024-02-05T21:13:42.169Z,87.72
2024-02-05T21:16:16.094Z,87.75
2024-02-05T21:18:43.255Z,87.59
2024-02-05T21:21:10.040Z,87.98
2024-02-05T21:23:37.012Z,87.51
2024-02-05T21:26:03.798Z,87.42
2024-02-05T21:28:33.091Z,87.52
2024-02-05T21:31:04.976Z,87.47
2024-02-05T21:33:31.962Z,87.50
2024-02-05T21:36:00.864Z,87.17
2024-02-05T21:38:27.406Z,87.64
2024-02-05T21:40:56.306Z,87.21
2024-02-05T21:43:22.972Z,87.11
2024-02-05T21:45:54.373Z,86.94
2024-02-05T21:48:23.295Z,87.30
2024-02-05T21:50:49.991Z,87.20
2024-02-05T21:53:19.844Z,86.86
2024-02-05T21:55:46.506Z,87.19
2024-02-05T21:58:17.664Z,87.26
2024-02-05T22:00:47.249Z,87.23
2024-02-05T22:03:13.843Z,86.91
2024-02-05T22:05:40.614Z,87.10
2024-02-05T22:08:09.670Z,86.99
2024-02-05T22:10:38.875Z,86.91
2024-02-05T22:13:09.154Z,87.00
2024-02-05T22:15:38.765Z,87.15
2024-02-05T22:18:05.896Z,87.15
2024-02-05T22:20:34.733Z,87.35
2024-02-05T22:23:03.643Z,87.33
2024-02-05T22:25:30.403Z,87.07
2024-02-05T22:27:57.940Z,87.18
2024-02-05T22:30:26.201Z,87.26
2024-02-05T22:32:53.802Z,87.03
2024-02-05T22:35:20.593Z,86.79
2024-02-05T22:37:49.541Z,86.39
2024-02-05T22:40:16.195Z,86.48
2024-02-05T22:42:47.629Z,86.36
2024-02-05T22:45:17.192Z,86.31
2024-02-05T22:47:43.869Z,86.35
2024-02-05T22:50:11.218Z,86.09
2024-02-05T22:52:38.546Z,85.75
2024-02-05T22:55:06.151Z,85.75
2024-02-05T22:57:35.705Z,85.68
2024-02-05T23:00:02.996Z,85.48
2024-02-05T23:02:30.364Z,85.89
2024-02-05T23:04:59.441Z,85.39
2024-02-05T23:07:30.942Z,85.63
2024-02-05T23:09:57.825Z,85.40
2024-02-05T23:12:26.830Z,85.53
2024-02-05T23:14:53.389Z,85.48
2024-02-05T23:17:22.337Z,85.72
2024-02-05T23:19:49.054Z,86.01
2024-02-05T23:22:18.355Z,85.73
2024-02-05T23:24:45.128Z,85.91
2024-02-05T23:27:12.601Z,86.00
2024-02-05T23:29:44.083Z,86.06
2024-02-05T23:32:11.010Z,85.99
2024-02-05T23:34:40.082Z,86.18
2024-02-05T23:37:06.973Z,86.25
2024-02-05T23:39:33.665Z,85.82
2024-02-05T23:42:00.611Z,86.26
2024-02-05T23:44:29.529Z,86.19
2024-02-05T23:46:58.439Z,86.26
2024-02-05T23:49:27.361Z,86.35
2024-02-05T23:51:56.861Z,86.52
2024-02-05T23:54:26.126Z,86.54
2024-02-05T23:56:54.759Z,86.90
2024-02-05T23:59:22.532Z,86.33
